sensor_id;sensor_type;location;lat;lon;timestamp;P1;durP1;ratioP1;P2;durP2;ratioP2
31728;SDS011;18309;43.658;1.312;2023-10-08T00:01:50;20.15;;;6.28;;
31728;SDS011;18309;43.658;1.312;2023-10-08T00:04:16;22.83;;;6.00;;
31728;SDS011;18309;43.658;1.312;2023-10-08T00:06:45;15.25;;;6.10;;
31728;SDS011;18309;43.658;1.312;2023-10-08T00:09:11;16.30;;;5.18;;
31728;SDS011;18309;43.658;1.312;2023-10-08T00:11:37;23.60;;;5.97;;
31728;SDS011;18309;43.658;1.312;2023-10-08T00:14:04;16.88;;;6.18;;
31728;SDS011;18309;43.658;1.312;2023-10-08T00:16:36;20.83;;;5.97;;
31728;SDS011;18309;43.658;1.312;2023-10-08T00:19:06;21.30;;;6.10;;
31728;SDS011;18309;43.658;1.312;2023-10-08T00:21:39;14.68;;;6.20;;
31728;SDS011;18309;43.658;1.312;2023-10-08T00:24:05;13.38;;;6.30;;
31728;SDS011;18309;43.658;1.312;2023-10-08T00:26:32;14.75;;;6.47;;
31728;SDS011;18309;43.658;1.312;2023-10-08T00:29:00;24.38;;;5.90;;
31728;SDS011;18309;43.658;1.312;2023-10-08T00:31:33;14.02;;;6.32;;
31728;SDS011;18309;43.658;1.312;2023-10-08T00:34:06;27.17;;;8.10;;
31728;SDS011;18309;43.658;1.312;2023-10-08T00:36:38;22.45;;;7.75;;
31728;SDS011;18309;43.658;1.312;2023-10-08T00:39:06;26.20;;;7.95;;
31728;SDS011;18309;43.658;1.312;2023-10-08T00:41:53;20.45;;;7.10;;
31728;SDS011;18309;43.658;1.312;2023-10-08T00:44:24;17.65;;;7.93;;
31728;SDS011;18309;43.658;1.312;2023-10-08T00:46:55;19.65;;;7.43;;
31728;SDS011;18309;43.658;1.312;2023-10-08T00:49:29;18.15;;;7.22;;
31728;SDS011;18309;43.658;1.312;2023-10-08T00:52:10;19.98;;;7.25;;
31728;SDS011;18309;43.658;1.312;2023-10-08T00:54:40;24.70;;;6.68;;
31728;SDS011;18309;43.658;1.312;2023-10-08T00:57:17;17.48;;;7.07;;
31728;SDS011;18309;43.658;1.312;2023-10-08T00:59:48;18.83;;;7.13;;
31728;SDS011;18309;43.658;1.312;2023-10-08T01:02:24;14.30;;;6.63;;
31728;SDS011;18309;43.658;1.312;2023-10-08T01:04:55;16.30;;;6.57;;
31728;SDS011;18309;43.658;1.312;2023-10-08T01:07:22;15.10;;;6.05;;
31728;SDS011;18309;43.658;1.312;2023-10-08T01:09:49;23.38;;;5.80;;
31728;SDS011;18309;43.658;1.312;2023-10-08T01:12:20;19.90;;;7.07;;
31728;SDS011;18309;43.658;1.312;2023-10-08T01:14:51;20.63;;;6.70;;
31728;SDS011;18309;43.658;1.312;2023-10-08T01:17:39;14.98;;;5.88;;
31728;SDS011;18309;43.658;1.312;2023-10-08T01:20:37;15.52;;;6.57;;
31728;SDS011;18309;43.658;1.312;2023-10-08T01:23:07;19.35;;;6.28;;
31728;SDS011;18309;43.658;1.312;2023-10-08T01:25:38;17.00;;;5.45;;
31728;SDS011;18309;43.658;1.312;2023-10-08T01:28:05;10.90;;;5.32;;
31728;SDS011;18309;43.658;1.312;2023-10-08T01:30:43;21.13;;;6.43;;
31728;SDS011;18309;43.658;1.312;2023-10-08T01:33:15;16.67;;;6.45;;
31728;SDS011;18309;43.658;1.312;2023-10-08T01:35:46;16.08;;;5.20;;
31728;SDS011;18309;43.658;1.312;2023-10-08T01:38:13;13.82;;;5.57;;
31728;SDS011;18309;43.658;1.312;2023-10-08T01:40:40;11.35;;;5.15;;
31728;SDS011;18309;43.658;1.312;2023-10-08T01:43:07;16.35;;;5.65;;
31728;SDS011;18309;43.658;1.312;2023-10-08T01:45:35;16.17;;;5.93;;
31728;SDS011;18309;43.658;1.312;2023-10-08T01:48:08;15.82;;;5.78;;
31728;SDS011;18309;43.658;1.312;2023-10-08T01:50:37;18.58;;;5.53;;
31728;SDS011;18309;43.658;1.312;2023-10-08T01:53:03;13.85;;;5.38;;
31728;SDS011;18309;43.658;1.312;2023-10-08T01:55:36;18.48;;;5.68;;
31728;SDS011;18309;43.658;1.312;2023-10-08T01:58:14;22.80;;;5.93;;
31728;SDS011;18309;43.658;1.312;2023-10-08T02:00:45;11.57;;;5.53;;
31728;SDS011;18309;43.658;1.312;2023-10-08T02:03:13;14.40;;;6.05;;
31728;SDS011;18309;43.658;1.312;2023-10-08T02:05:47;18.45;;;5.65;;
31728;SDS011;18309;43.658;1.312;2023-10-08T02:08:14;17.80;;;6.15;;
31728;SDS011;18309;43.658;1.312;2023-10-08T02:10:42;21.52;;;6.15;;
31728;SDS011;18309;43.658;1.312;2023-10-08T02:13:12;20.42;;;6.47;;
31728;SDS011;18309;43.658;1.312;2023-10-08T02:15:45;17.40;;;6.30;;
31728;SDS011;18309;43.658;1.312;2023-10-08T02:18:16;19.13;;;5.10;;
31728;SDS011;18309;43.658;1.312;2023-10-08T02:20:42;17.42;;;6.25;;
31728;SDS011;18309;43.658;1.312;2023-10-08T02:23:10;21.58;;;6.90;;
31728;SDS011;18309;43.658;1.312;2023-10-08T02:25:39;15.77;;;6.07;;
31728;SDS011;18309;43.658;1.312;2023-10-08T02:28:08;17.60;;;6.15;;
31728;SDS011;18309;43.658;1.312;2023-10-08T02:30:35;16.17;;;6.15;;
31728;SDS011;18309;43.658;1.312;2023-10-08T02:33:05;19.83;;;5.40;;
31728;SDS011;18309;43.658;1.312;2023-10-08T02:35:39;14.70;;;5.55;;
31728;SDS011;18309;43.658;1.312;2023-10-08T02:38:07;14.35;;;5.97;;
31728;SDS011;18309;43.658;1.312;2023-10-08T02:43:10;20.50;;;6.53;;
31728;SDS011;18309;43.658;1.312;2023-10-08T02:45:39;16.90;;;6.47;;
31728;SDS011;18309;43.658;1.312;2023-10-08T02:48:06;16.05;;;5.47;;
31728;SDS011;18309;43.658;1.312;2023-10-08T02:50:39;11.60;;;5.80;;
31728;SDS011;18309;43.658;1.312;2023-10-08T02:53:05;18.05;;;5.80;;
31728;SDS011;18309;43.658;1.312;2023-10-08T02:58:10;21.52;;;5.45;;
31728;SDS011;18309;43.658;1.312;2023-10-08T03:00:44;17.30;;;5.47;;
31728;SDS011;18309;43.658;1.312;2023-10-08T03:03:16;13.13;;;6.47;;
31728;SDS011;18309;43.658;1.312;2023-10-08T03:05:44;12.00;;;5.32;;
31728;SDS011;18309;43.658;1.312;2023-10-08T03:08:11;18.45;;;5.45;;
31728;SDS011;18309;43.658;1.312;2023-10-08T03:10:38;15.73;;;5.63;;
31728;SDS011;18309;43.658;1.312;2023-10-08T03:13:06;20.20;;;5.55;;
31728;SDS011;18309;43.658;1.312;2023-10-08T03:15:35;17.67;;;5.82;;
31728;SDS011;18309;43.658;1.312;2023-10-08T03:18:20;21.92;;;5.93;;
31728;SDS011;18309;43.658;1.312;2023-10-08T03:20:47;19.00;;;5.05;;
31728;SDS011;18309;43.658;1.312;2023-10-08T03:23:14;20.85;;;5.85;;
31728;SDS011;18309;43.658;1.312;2023-10-08T03:25:58;13.63;;;5.35;;
31728;SDS011;18309;43.658;1.312;2023-10-08T03:28:47;14.00;;;5.22;;
31728;SDS011;18309;43.658;1.312;2023-10-08T03:31:23;15.75;;;5.43;;
31728;SDS011;18309;43.658;1.312;2023-10-08T03:34:08;11.27;;;5.05;;
31728;SDS011;18309;43.658;1.312;2023-10-08T03:36:40;14.15;;;5.97;;
31728;SDS011;18309;43.658;1.312;2023-10-08T03:39:13;11.88;;;5.05;;
31728;SDS011;18309;43.658;1.312;2023-10-08T03:41:42;19.25;;;5.07;;
31728;SDS011;18309;43.658;1.312;2023-10-08T03:44:17;13.48;;;5.25;;
31728;SDS011;18309;43.658;1.312;2023-10-08T03:46:45;13.85;;;5.38;;
31728;SDS011;18309;43.658;1.312;2023-10-08T03:49:13;11.27;;;4.95;;
31728;SDS011;18309;43.658;1.312;2023-10-08T03:51:57;15.80;;;4.90;;
31728;SDS011;18309;43.658;1.312;2023-10-08T03:54:25;14.77;;;5.53;;
31728;SDS011;18309;43.658;1.312;2023-10-08T03:57:00;17.52;;;5.20;;
31728;SDS011;18309;43.658;1.312;2023-10-08T03:59:29;28.10;;;6.70;;
31728;SDS011;18309;43.658;1.312;2023-10-08T04:01:59;13.13;;;5.32;;
31728;SDS011;18309;43.658;1.312;2023-10-08T04:04:55;17.60;;;5.20;;
31728;SDS011;18309;43.658;1.312;2023-10-08T04:07:24;23.13;;;5.15;;
31728;SDS011;18309;43.658;1.312;2023-10-08T04:10:03;14.85;;;5.43;;
31728;SDS011;18309;43.658;1.312;2023-10-08T04:12:39;16.60;;;5.05;;
31728;SDS011;18309;43.658;1.312;2023-10-08T04:15:15;14.38;;;5.20;;
31728;SDS011;18309;43.658;1.312;2023-10-08T04:17:42;20.77;;;5.47;;
31728;SDS011;18309;43.658;1.312;2023-10-08T04:20:16;18.95;;;6.10;;
31728;SDS011;18309;43.658;1.312;2023-10-08T04:23:02;28.63;;;6.00;;
31728;SDS011;18309;43.658;1.312;2023-10-08T04:25:29;16.08;;;5.40;;
31728;SDS011;18309;43.658;1.312;2023-10-08T04:28:00;13.00;;;5.75;;
31728;SDS011;18309;43.658;1.312;2023-10-08T04:30:27;14.00;;;5.10;;
31728;SDS011;18309;43.658;1.312;2023-10-08T04:33:03;17.10;;;5.63;;
31728;SDS011;18309;43.658;1.312;2023-10-08T04:35:36;14.27;;;4.90;;
31728;SDS011;18309;43.658;1.312;2023-10-08T04:38:24;13.38;;;5.13;;
31728;SDS011;18309;43.658;1.312;2023-10-08T04:40:52;19.65;;;5.45;;
31728;SDS011;18309;43.658;1.312;2023-10-08T04:43:21;13.43;;;5.90;;
31728;SDS011;18309;43.658;1.312;2023-10-08T04:45:52;13.52;;;5.45;;
31728;SDS011;18309;43.658;1.312;2023-10-08T04:48:20;11.88;;;5.05;;
31728;SDS011;18309;43.658;1.312;2023-10-08T04:50:47;11.93;;;5.43;;
31728;SDS011;18309;43.658;1.312;2023-10-08T04:53:30;13.75;;;6.18;;
31728;SDS011;18309;43.658;1.312;2023-10-08T04:56:01;12.68;;;5.40;;
31728;SDS011;18309;43.658;1.312;2023-10-08T04:58:31;14.50;;;5.15;;
31728;SDS011;18309;43.658;1.312;2023-10-08T05:01:05;15.07;;;5.07;;
31728;SDS011;18309;43.658;1.312;2023-10-08T05:03:47;15.13;;;5.22;;
31728;SDS011;18309;43.658;1.312;2023-10-08T05:06:27;22.00;;;4.72;;
31728;SDS011;18309;43.658;1.312;2023-10-08T05:09:00;9.77;;;4.38;;
31728;SDS011;18309;43.658;1.312;2023-10-08T05:11:36;19.80;;;4.95;;
31728;SDS011;18309;43.658;1.312;2023-10-08T05:14:15;14.98;;;5.22;;
31728;SDS011;18309;43.658;1.312;2023-10-08T05:16:57;12.07;;;5.30;;
31728;SDS011;18309;43.658;1.312;2023-10-08T05:19:35;12.40;;;5.43;;
31728;SDS011;18309;43.658;1.312;2023-10-08T05:22:05;10.88;;;4.47;;
31728;SDS011;18309;43.658;1.312;2023-10-08T05:24:44;11.75;;;5.40;;
31728;SDS011;18309;43.658;1.312;2023-10-08T05:27:30;12.02;;;4.78;;
31728;SDS011;18309;43.658;1.312;2023-10-08T05:30:09;15.02;;;4.90;;
31728;SDS011;18309;43.658;1.312;2023-10-08T05:32:45;13.63;;;4.72;;
31728;SDS011;18309;43.658;1.312;2023-10-08T05:35:30;12.02;;;4.95;;
31728;SDS011;18309;43.658;1.312;2023-10-08T05:38:14;11.93;;;5.07;;
31728;SDS011;18309;43.658;1.312;2023-10-08T05:41:03;11.48;;;5.65;;
31728;SDS011;18309;43.658;1.312;2023-10-08T05:46:04;14.57;;;5.63;;
31728;SDS011;18309;43.658;1.312;2023-10-08T05:51:31;12.55;;;5.10;;
31728;SDS011;18309;43.658;1.312;2023-10-08T05:54:13;17.33;;;5.95;;
31728;SDS011;18309;43.658;1.312;2023-10-08T05:56:59;22.27;;;5.90;;
31728;SDS011;18309;43.658;1.312;2023-10-08T05:59:39;16.13;;;5.53;;
31728;SDS011;18309;43.658;1.312;2023-10-08T06:02:20;16.05;;;5.47;;
31728;SDS011;18309;43.658;1.312;2023-10-08T06:04:52;15.70;;;5.53;;
31728;SDS011;18309;43.658;1.312;2023-10-08T06:10:31;10.88;;;5.05;;
31728;SDS011;18309;43.658;1.312;2023-10-08T06:12:58;21.75;;;6.55;;
31728;SDS011;18309;43.658;1.312;2023-10-08T06:18:19;14.77;;;5.50;;
31728;SDS011;18309;43.658;1.312;2023-10-08T06:21:02;12.30;;;4.70;;
31728;SDS011;18309;43.658;1.312;2023-10-08T06:23:37;11.20;;;5.25;;
31728;SDS011;18309;43.658;1.312;2023-10-08T06:26:04;11.75;;;5.00;;
31728;SDS011;18309;43.658;1.312;2023-10-08T06:28:56;12.82;;;4.93;;
31728;SDS011;18309;43.658;1.312;2023-10-08T06:31:23;9.85;;;5.00;;
31728;SDS011;18309;43.658;1.312;2023-10-08T06:33:51;17.92;;;5.25;;
31728;SDS011;18309;43.658;1.312;2023-10-08T06:36:17;11.65;;;5.00;;
31728;SDS011;18309;43.658;1.312;2023-10-08T06:38:49;15.65;;;4.70;;
31728;SDS011;18309;43.658;1.312;2023-10-08T06:41:15;13.48;;;4.90;;
31728;SDS011;18309;43.658;1.312;2023-10-08T06:43:44;15.68;;;4.25;;
31728;SDS011;18309;43.658;1.312;2023-10-08T06:46:37;13.57;;;5.28;;
31728;SDS011;18309;43.658;1.312;2023-10-08T06:49:06;15.80;;;4.95;;
31728;SDS011;18309;43.658;1.312;2023-10-08T06:51:36;18.00;;;5.30;;
31728;SDS011;18309;43.658;1.312;2023-10-08T06:54:03;15.27;;;4.78;;
31728;SDS011;18309;43.658;1.312;2023-10-08T06:56:28;10.40;;;4.50;;
31728;SDS011;18309;43.658;1.312;2023-10-08T06:58:56;14.90;;;4.72;;
31728;SDS011;18309;43.658;1.312;2023-10-08T07:01:24;13.80;;;4.75;;
31728;SDS011;18309;43.658;1.312;2023-10-08T07:03:56;15.77;;;3.95;;
31728;SDS011;18309;43.658;1.312;2023-10-08T07:06:37;13.02;;;4.70;;
31728;SDS011;18309;43.658;1.312;2023-10-08T07:09:05;16.38;;;5.00;;
31728;SDS011;18309;43.658;1.312;2023-10-08T07:11:38;13.63;;;4.50;;
31728;SDS011;18309;43.658;1.312;2023-10-08T07:16:36;18.25;;;5.10;;
31728;SDS011;18309;43.658;1.312;2023-10-08T07:19:01;24.63;;;5.47;;
31728;SDS011;18309;43.658;1.312;2023-10-08T07:21:30;13.80;;;4.97;;
31728;SDS011;18309;43.658;1.312;2023-10-08T07:24:11;10.25;;;4.70;;
31728;SDS011;18309;43.658;1.312;2023-10-08T07:26:42;19.75;;;4.45;;
31728;SDS011;18309;43.658;1.312;2023-10-08T07:29:16;12.52;;;4.75;;
31728;SDS011;18309;43.658;1.312;2023-10-08T07:34:13;24.05;;;5.13;;
31728;SDS011;18309;43.658;1.312;2023-10-08T07:36:45;13.75;;;4.97;;
31728;SDS011;18309;43.658;1.312;2023-10-08T07:39:12;11.90;;;4.85;;
31728;SDS011;18309;43.658;1.312;2023-10-08T07:41:57;17.75;;;4.95;;
31728;SDS011;18309;43.658;1.312;2023-10-08T07:44:26;23.52;;;4.97;;
31728;SDS011;18309;43.658;1.312;2023-10-08T07:46:53;21.40;;;5.03;;
31728;SDS011;18309;43.658;1.312;2023-10-08T07:49:25;99.80;;;6.80;;
31728;SDS011;18309;43.658;1.312;2023-10-08T07:51:55;41.63;;;4.80;;
31728;SDS011;18309;43.658;1.312;2023-10-08T07:54:23;16.02;;;5.03;;
31728;SDS011;18309;43.658;1.312;2023-10-08T07:56:52;15.00;;;4.15;;
31728;SDS011;18309;43.658;1.312;2023-10-08T07:59:45;14.10;;;4.70;;
31728;SDS011;18309;43.658;1.312;2023-10-08T08:02:12;11.25;;;4.72;;
31728;SDS011;18309;43.658;1.312;2023-10-08T08:04:39;10.98;;;4.50;;
31728;SDS011;18309;43.658;1.312;2023-10-08T08:07:07;11.35;;;4.15;;
31728;SDS011;18309;43.658;1.312;2023-10-08T08:09:33;19.77;;;4.93;;
31728;SDS011;18309;43.658;1.312;2023-10-08T08:12:06;16.40;;;4.90;;
31728;SDS011;18309;43.658;1.312;2023-10-08T08:14:37;11.80;;;4.45;;
31728;SDS011;18309;43.658;1.312;2023-10-08T08:17:06;14.65;;;4.00;;
31728;SDS011;18309;43.658;1.312;2023-10-08T08:19:41;10.27;;;4.70;;
31728;SDS011;18309;43.658;1.312;2023-10-08T08:22:16;29.10;;;5.88;;
31728;SDS011;18309;43.658;1.312;2023-10-08T08:27:20;11.90;;;4.15;;
31728;SDS011;18309;43.658;1.312;2023-10-08T08:29:52;9.38;;;3.83;;
31728;SDS011;18309;43.658;1.312;2023-10-08T08:32:21;13.65;;;4.10;;
31728;SDS011;18309;43.658;1.312;2023-10-08T08:34:48;13.38;;;4.28;;
31728;SDS011;18309;43.658;1.312;2023-10-08T08:37:17;11.80;;;4.30;;
31728;SDS011;18309;43.658;1.312;2023-10-08T08:39:44;13.75;;;4.72;;
31728;SDS011;18309;43.658;1.312;2023-10-08T08:42:11;14.65;;;4.22;;
31728;SDS011;18309;43.658;1.312;2023-10-08T08:44:41;11.30;;;3.65;;
31728;SDS011;18309;43.658;1.312;2023-10-08T08:47:14;8.43;;;3.97;;
31728;SDS011;18309;43.658;1.312;2023-10-08T08:49:43;12.35;;;3.97;;
31728;SDS011;18309;43.658;1.312;2023-10-08T08:52:29;13.80;;;3.53;;
31728;SDS011;18309;43.658;1.312;2023-10-08T08:54:55;19.30;;;4.68;;
31728;SDS011;18309;43.658;1.312;2023-10-08T08:57:21;12.82;;;4.07;;
31728;SDS011;18309;43.658;1.312;2023-10-08T08:59:55;10.77;;;3.95;;
31728;SDS011;18309;43.658;1.312;2023-10-08T09:02:23;11.90;;;4.85;;
31728;SDS011;18309;43.658;1.312;2023-10-08T09:04:49;15.10;;;4.20;;
31728;SDS011;18309;43.658;1.312;2023-10-08T09:07:19;7.90;;;3.90;;
31728;SDS011;18309;43.658;1.312;2023-10-08T09:09:46;12.07;;;3.92;;
31728;SDS011;18309;43.658;1.312;2023-10-08T09:12:15;7.28;;;3.63;;
31728;SDS011;18309;43.658;1.312;2023-10-08T09:14:42;10.00;;;3.38;;
31728;SDS011;18309;43.658;1.312;2023-10-08T09:17:09;9.95;;;3.78;;
31728;SDS011;18309;43.658;1.312;2023-10-08T09:19:40;11.40;;;3.85;;
31728;SDS011;18309;43.658;1.312;2023-10-08T09:22:06;16.33;;;4.47;;
31728;SDS011;18309;43.658;1.312;2023-10-08T09:24:37;12.30;;;3.95;;
31728;SDS011;18309;43.658;1.312;2023-10-08T09:27:05;14.27;;;3.88;;
31728;SDS011;18309;43.658;1.312;2023-10-08T09:29:32;15.65;;;4.13;;
31728;SDS011;18309;43.658;1.312;2023-10-08T09:32:24;15.27;;;4.43;;
31728;SDS011;18309;43.658;1.312;2023-10-08T09:34:51;12.38;;;4.50;;
31728;SDS011;18309;43.658;1.312;2023-10-08T09:37:17;16.17;;;4.35;;
31728;SDS011;18309;43.658;1.312;2023-10-08T09:39:47;10.52;;;3.65;;
31728;SDS011;18309;43.658;1.312;2023-10-08T09:42:16;17.95;;;4.15;;
31728;SDS011;18309;43.658;1.312;2023-10-08T09:44:46;18.95;;;4.10;;
31728;SDS011;18309;43.658;1.312;2023-10-08T09:47:12;11.07;;;3.78;;
31728;SDS011;18309;43.658;1.312;2023-10-08T09:53:25;20.60;;;4.10;;
31728;SDS011;18309;43.658;1.312;2023-10-08T09:55:31;16.00;;;3.55;;
31728;SDS011;18309;43.658;1.312;2023-10-08T09:57:58;10.93;;;4.32;;
31728;SDS011;18309;43.658;1.312;2023-10-08T10:00:25;17.33;;;3.72;;
31728;SDS011;18309;43.658;1.312;2023-10-08T10:02:56;15.02;;;3.47;;
31728;SDS011;18309;43.658;1.312;2023-10-08T10:05:30;8.23;;;3.63;;
31728;SDS011;18309;43.658;1.312;2023-10-08T10:08:05;12.07;;;3.50;;
31728;SDS011;18309;43.658;1.312;2023-10-08T10:10:31;17.55;;;4.00;;
31728;SDS011;18309;43.658;1.312;2023-10-08T10:13:03;15.35;;;3.60;;
31728;SDS011;18309;43.658;1.312;2023-10-08T10:15:33;9.02;;;3.72;;
31728;SDS011;18309;43.658;1.312;2023-10-08T10:18:27;9.98;;;3.38;;
31728;SDS011;18309;43.658;1.312;2023-10-08T10:23:34;13.80;;;5.35;;
31728;SDS011;18309;43.658;1.312;2023-10-08T10:31:36;10.85;;;3.83;;
31728;SDS011;18309;43.658;1.312;2023-10-08T10:36:57;10.95;;;3.85;;
31728;SDS011;18309;43.658;1.312;2023-10-08T10:39:33;16.10;;;6.43;;
31728;SDS011;18309;43.658;1.312;2023-10-08T10:42:05;14.30;;;6.30;;
31728;SDS011;18309;43.658;1.312;2023-10-08T10:44:32;15.15;;;4.03;;
31728;SDS011;18309;43.658;1.312;2023-10-08T10:47:01;13.13;;;5.78;;
31728;SDS011;18309;43.658;1.312;2023-10-08T10:49:47;9.20;;;4.60;;
31728;SDS011;18309;43.658;1.312;2023-10-08T10:52:27;8.93;;;3.67;;
31728;SDS011;18309;43.658;1.312;2023-10-08T10:55:07;15.13;;;4.28;;
31728;SDS011;18309;43.658;1.312;2023-10-08T11:00:36;7.75;;;3.60;;
31728;SDS011;18309;43.658;1.312;2023-10-08T11:03:06;8.73;;;3.80;;
31728;SDS011;18309;43.658;1.312;2023-10-08T11:05:41;10.43;;;3.80;;
31728;SDS011;18309;43.658;1.312;2023-10-08T11:08:13;16.75;;;4.10;;
31728;SDS011;18309;43.658;1.312;2023-10-08T11:10:43;7.07;;;3.58;;
31728;SDS011;18309;43.658;1.312;2023-10-08T11:13:14;13.23;;;4.20;;
31728;SDS011;18309;43.658;1.312;2023-10-08T11:15:44;6.30;;;3.40;;
31728;SDS011;18309;43.658;1.312;2023-10-08T11:18:18;18.08;;;4.22;;
31728;SDS011;18309;43.658;1.312;2023-10-08T11:20:45;8.38;;;3.95;;
31728;SDS011;18309;43.658;1.312;2023-10-08T11:23:35;13.32;;;4.05;;
31728;SDS011;18309;43.658;1.312;2023-10-08T11:26:06;13.63;;;4.40;;
31728;SDS011;18309;43.658;1.312;2023-10-08T11:28:33;7.80;;;4.00;;
31728;SDS011;18309;43.658;1.312;2023-10-08T11:31:08;12.27;;;3.92;;
31728;SDS011;18309;43.658;1.312;2023-10-08T11:33:40;12.10;;;3.72;;
31728;SDS011;18309;43.658;1.312;2023-10-08T11:36:07;11.68;;;4.30;;
31728;SDS011;18309;43.658;1.312;2023-10-08T11:38:52;14.98;;;3.85;;
31728;SDS011;18309;43.658;1.312;2023-10-08T11:41:26;9.50;;;4.05;;
31728;SDS011;18309;43.658;1.312;2023-10-08T11:43:54;9.52;;;4.20;;
31728;SDS011;18309;43.658;1.312;2023-10-08T11:48:52;10.05;;;3.92;;
31728;SDS011;18309;43.658;1.312;2023-10-08T11:51:18;8.43;;;4.80;;
31728;SDS011;18309;43.658;1.312;2023-10-08T11:53:49;12.68;;;4.57;;
31728;SDS011;18309;43.658;1.312;2023-10-08T11:56:16;10.38;;;3.70;;
31728;SDS011;18309;43.658;1.312;2023-10-08T11:58:46;6.65;;;3.75;;
31728;SDS011;18309;43.658;1.312;2023-10-08T12:01:12;8.20;;;4.05;;
31728;SDS011;18309;43.658;1.312;2023-10-08T12:03:44;8.50;;;3.60;;
31728;SDS011;18309;43.658;1.312;2023-10-08T12:06:11;9.95;;;3.92;;
31728;SDS011;18309;43.658;1.312;2023-10-08T12:08:44;10.18;;;4.20;;
31728;SDS011;18309;43.658;1.312;2023-10-08T12:11:14;13.32;;;3.92;;
31728;SDS011;18309;43.658;1.312;2023-10-08T12:13:40;15.23;;;4.70;;
31728;SDS011;18309;43.658;1.312;2023-10-08T12:16:10;9.95;;;4.07;;
31728;SDS011;18309;43.658;1.312;2023-10-08T12:18:49;12.17;;;3.83;;
31728;SDS011;18309;43.658;1.312;2023-10-08T12:21:24;9.45;;;4.28;;
31728;SDS011;18309;43.658;1.312;2023-10-08T12:24:00;8.02;;;4.07;;
31728;SDS011;18309;43.658;1.312;2023-10-08T12:26:30;7.53;;;3.67;;
31728;SDS011;18309;43.658;1.312;2023-10-08T12:28:56;12.82;;;4.68;;
31728;SDS011;18309;43.658;1.312;2023-10-08T12:31:22;7.32;;;3.88;;
31728;SDS011;18309;43.658;1.312;2023-10-08T12:33:49;7.65;;;4.07;;
31728;SDS011;18309;43.658;1.312;2023-10-08T12:36:22;10.07;;;5.10;;
31728;SDS011;18309;43.658;1.312;2023-10-08T12:38:49;8.45;;;3.80;;
31728;SDS011;18309;43.658;1.312;2023-10-08T12:41:22;8.88;;;3.88;;
31728;SDS011;18309;43.658;1.312;2023-10-08T12:43:52;12.33;;;4.57;;
31728;SDS011;18309;43.658;1.312;2023-10-08T12:46:18;14.02;;;3.75;;
31728;SDS011;18309;43.658;1.312;2023-10-08T12:48:49;7.78;;;3.92;;
31728;SDS011;18309;43.658;1.312;2023-10-08T12:51:22;7.13;;;3.90;;
31728;SDS011;18309;43.658;1.312;2023-10-08T12:53:50;8.13;;;3.42;;
31728;SDS011;18309;43.658;1.312;2023-10-08T12:56:23;9.88;;;3.47;;
31728;SDS011;18309;43.658;1.312;2023-10-08T12:58:57;9.57;;;3.97;;
31728;SDS011;18309;43.658;1.312;2023-10-08T13:01:23;8.90;;;4.13;;
31728;SDS011;18309;43.658;1.312;2023-10-08T13:03:54;9.23;;;3.88;;
31728;SDS011;18309;43.658;1.312;2023-10-08T13:06:25;11.18;;;3.80;;
31728;SDS011;18309;43.658;1.312;2023-10-08T13:08:55;14.65;;;3.50;;
31728;SDS011;18309;43.658;1.312;2023-10-08T13:11:26;9.05;;;3.90;;
31728;SDS011;18309;43.658;1.312;2023-10-08T13:13:59;9.05;;;4.10;;
31728;SDS011;18309;43.658;1.312;2023-10-08T13:16:28;9.55;;;4.00;;
31728;SDS011;18309;43.658;1.312;2023-10-08T13:18:56;14.00;;;3.92;;
31728;SDS011;18309;43.658;1.312;2023-10-08T13:21:23;10.82;;;4.07;;
31728;SDS011;18309;43.658;1.312;2023-10-08T13:23:50;11.02;;;3.42;;
31728;SDS011;18309;43.658;1.312;2023-10-08T13:26:16;10.45;;;4.38;;
31728;SDS011;18309;43.658;1.312;2023-10-08T13:28:43;19.02;;;4.60;;
31728;SDS011;18309;43.658;1.312;2023-10-08T13:31:29;10.48;;;3.90;;
31728;SDS011;18309;43.658;1.312;2023-10-08T13:33:55;13.63;;;3.60;;
31728;SDS011;18309;43.658;1.312;2023-10-08T13:36:22;6.95;;;3.88;;
31728;SDS011;18309;43.658;1.312;2023-10-08T13:38:49;11.95;;;3.58;;
31728;SDS011;18309;43.658;1.312;2023-10-08T13:41:16;12.18;;;4.05;;
31728;SDS011;18309;43.658;1.312;2023-10-08T13:43:49;7.93;;;4.07;;
31728;SDS011;18309;43.658;1.312;2023-10-08T13:46:18;7.82;;;3.70;;
31728;SDS011;18309;43.658;1.312;2023-10-08T13:48:48;14.82;;;3.80;;
31728;SDS011;18309;43.658;1.312;2023-10-08T13:51:15;9.82;;;3.78;;
31728;SDS011;18309;43.658;1.312;2023-10-08T13:53:49;9.48;;;3.97;;
31728;SDS011;18309;43.658;1.312;2023-10-08T13:56:21;16.55;;;4.80;;
31728;SDS011;18309;43.658;1.312;2023-10-08T13:58:51;14.50;;;4.18;;
31728;SDS011;18309;43.658;1.312;2023-10-08T14:01:43;10.18;;;3.85;;
31728;SDS011;18309;43.658;1.312;2023-10-08T14:04:16;15.13;;;3.60;;
31728;SDS011;18309;43.658;1.312;2023-10-08T14:06:45;10.77;;;4.32;;
31728;SDS011;18309;43.658;1.312;2023-10-08T14:09:18;8.70;;;3.63;;
31728;SDS011;18309;43.658;1.312;2023-10-08T14:11:56;16.75;;;4.43;;
31728;SDS011;18309;43.658;1.312;2023-10-08T14:14:22;10.88;;;3.95;;
31728;SDS011;18309;43.658;1.312;2023-10-08T14:16:54;7.53;;;3.55;;
31728;SDS011;18309;43.658;1.312;2023-10-08T14:19:25;8.95;;;3.72;;
31728;SDS011;18309;43.658;1.312;2023-10-08T14:22:04;15.23;;;4.55;;
31728;SDS011;18309;43.658;1.312;2023-10-08T14:24:33;13.88;;;4.63;;
31728;SDS011;18309;43.658;1.312;2023-10-08T14:27:00;7.32;;;3.85;;
31728;SDS011;18309;43.658;1.312;2023-10-08T14:29:34;12.48;;;5.43;;
31728;SDS011;18309;43.658;1.312;2023-10-08T14:32:05;9.48;;;4.07;;
31728;SDS011;18309;43.658;1.312;2023-10-08T14:34:34;12.10;;;3.55;;
31728;SDS011;18309;43.658;1.312;2023-10-08T14:37:12;13.80;;;3.72;;
31728;SDS011;18309;43.658;1.312;2023-10-08T14:39:56;11.88;;;4.00;;
31728;SDS011;18309;43.658;1.312;2023-10-08T14:42:40;10.50;;;3.95;;
31728;SDS011;18309;43.658;1.312;2023-10-08T14:45:23;14.23;;;4.68;;
31728;SDS011;18309;43.658;1.312;2023-10-08T14:47:53;9.85;;;3.75;;
31728;SDS011;18309;43.658;1.312;2023-10-08T14:50:19;11.95;;;4.20;;
31728;SDS011;18309;43.658;1.312;2023-10-08T14:52:47;12.23;;;3.78;;
31728;SDS011;18309;43.658;1.312;2023-10-08T14:55:13;16.15;;;3.90;;
31728;SDS011;18309;43.658;1.312;2023-10-08T14:57:41;11.23;;;4.18;;
31728;SDS011;18309;43.658;1.312;2023-10-08T15:00:08;11.77;;;3.88;;
31728;SDS011;18309;43.658;1.312;2023-10-08T15:02:35;16.50;;;3.97;;
31728;SDS011;18309;43.658;1.312;2023-10-08T15:05:02;15.27;;;3.60;;
31728;SDS011;18309;43.658;1.312;2023-10-08T15:07:32;11.15;;;3.55;;
31728;SDS011;18309;43.658;1.312;2023-10-08T15:09:59;12.73;;;4.00;;
31728;SDS011;18309;43.658;1.312;2023-10-08T15:12:28;7.60;;;3.53;;
31728;SDS011;18309;43.658;1.312;2023-10-08T15:14:58;10.20;;;4.63;;
31728;SDS011;18309;43.658;1.312;2023-10-08T15:17:24;10.77;;;4.25;;
31728;SDS011;18309;43.658;1.312;2023-10-08T15:19:51;12.38;;;4.07;;
31728;SDS011;18309;43.658;1.312;2023-10-08T15:22:17;11.25;;;4.25;;
31728;SDS011;18309;43.658;1.312;2023-10-08T15:24:42;12.70;;;4.43;;
31728;SDS011;18309;43.658;1.312;2023-10-08T15:27:11;9.20;;;4.22;;
31728;SDS011;18309;43.658;1.312;2023-10-08T15:29:36;13.40;;;4.35;;
31728;SDS011;18309;43.658;1.312;2023-10-08T15:32:02;16.60;;;3.90;;
31728;SDS011;18309;43.658;1.312;2023-10-08T15:34:28;10.32;;;4.30;;
31728;SDS011;18309;43.658;1.312;2023-10-08T15:36:54;19.77;;;4.70;;
31728;SDS011;18309;43.658;1.312;2023-10-08T15:39:19;14.38;;;4.07;;
31728;SDS011;18309;43.658;1.312;2023-10-08T15:41:48;14.98;;;4.32;;
31728;SDS011;18309;43.658;1.312;2023-10-08T15:44:19;9.55;;;4.10;;
31728;SDS011;18309;43.658;1.312;2023-10-08T15:46:48;11.18;;;3.65;;